Time;durP1;ratioP1;P1;durP2;ratioP2;P2;SDS_P1;SDS_P2;PMS_P1;PMS_P2;Temp;Humidity;BMP_temperature;BMP_pressure;BME280_temperature;BME280_humidity;BME280_pressure;Samples;Min_cycle;Max_cycle;Signal;HPM_P1;HPM_P2
2021/09/02 00:00:45;;;;;;;16.27;8.85;;;12.10;89.10;;;;;;5138119;27;20018;-37
2021/09/02 00:03:11;;;;;;;13.20;7.93;;;12.10;89.10;;;;;;5156928;27;20030;-38
2021/09/02 00:05:37;;;;;;;15.68;7.88;;;12.10;89.10;;;;;;5137923;27;20053;-37
2021/09/02 00:08:02;;;;;;;13.18;8.10;;;12.10;89.20;;;;;;5156432;27;20031;-37
2021/09/02 00:10:28;;;;;;;13.45;8.13;;;12.10;89.30;;;;;;5156565;27;20052;-37
2021/09/02 00:12:54;;;;;;;19.20;9.13;;;12.10;89.30;;;;;;5156768;27;20019;-38
2021/09/02 00:15:20;;;;;;;16.10;8.80;;;12.10;89.20;;;;;;5156717;27;20027;-38
2021/09/02 00:17:46;;;;;;;15.23;8.93;;;12.10;89.20;;;;;;5156605;27;20030;-37
2021/09/02 00:20:12;;;;;;;18.88;9.00;;;12.00;89.20;;;;;;5156269;27;20358;-37
2021/09/02 00:22:38;;;;;;;15.05;8.45;;;12.00;89.10;;;;;;5156804;27;20033;-37
2021/09/02 00:25:04;;;;;;;15.75;8.38;;;11.90;89.20;;;;;;5156309;27;20379;-37
2021/09/02 00:27:29;;;;;;;11.88;7.93;;;11.90;89.20;;;;;;5156162;27;20030;-38
2021/09/02 00:29:55;;;;;;;20.05;8.80;;;11.80;89.40;;;;;;5156221;27;20029;-37
2021/09/02 00:32:21;;;;;;;31.08;9.93;;;11.90;89.50;;;;;;5156377;27;20358;-37
2021/09/02 00:34:46;;;;;;;15.40;8.40;;;11.90;89.40;;;;;;5156258;27;20488;-37
2021/09/02 00:37:12;;;;;;;15.27;8.52;;;11.90;89.40;;;;;;5156454;27;20019;-37
2021/09/02 00:39:37;;;;;;;13.52;9.55;;;11.90;89.50;;;;;;5155737;27;20055;-37
2021/09/02 00:42:03;;;;;;;11.80;8.23;;;11.90;89.50;;;;;;5155757;27;20098;-37
2021/09/02 00:44:40;;;;;;;17.65;10.57;;;11.90;89.40;;;;;;5156124;27;20027;-40
2021/09/02 00:47:08;;;;;;;16.10;8.55;;;11.90;89.40;;;;;;5155692;27;20018;-38
2021/09/02 00:49:35;;;;;;;13.93;8.63;;;11.80;89.30;;;;;;5155957;27;20022;-38
2021/09/02 00:52:22;;;;;;;17.48;8.25;;;11.80;89.30;;;;;;5155925;27;20109;-38
2021/09/02 00:54:51;;;;;;;12.90;8.13;;;11.80;89.30;;;;;;5154930;27;20057;-38
2021/09/02 00:57:18;;;;;;;16.90;9.88;;;11.80;89.50;;;;;;5155657;27;20026;-38
2021/09/02 00:59:54;;;;;;;17.55;9.30;;;11.80;89.50;;;;;;5155621;27;20404;-38
2021/09/02 01:02:21;;;;;;;14.65;9.20;;;11.80;89.60;;;;;;5155572;27;20018;-38
2021/09/02 01:04:46;;;;;;;18.40;10.10;;;11.80;89.70;;;;;;5155262;27;20041;-37
2021/09/02 01:07:13;;;;;;;17.30;9.45;;;11.80;89.70;;;;;;5155286;27;20030;-37
2021/09/02 01:09:40;;;;;;;14.15;8.77;;;11.80;89.70;;;;;;5136501;27;20049;-37
2021/09/02 01:12:25;;;;;;;21.23;9.13;;;11.80;89.70;;;;;;5155559;27;20023;-37
2021/09/02 01:14:50;;;;;;;14.30;8.20;;;11.60;89.70;;;;;;5155005;27;20098;-37
2021/09/02 01:17:16;;;;;;;15.57;8.70;;;11.60;89.80;;;;;;5155044;27;20102;-37
2021/09/02 01:19:43;;;;;;;15.63;8.93;;;11.60;89.90;;;;;;5154844;27;20054;-38
2021/09/02 01:22:08;;;;;;;17.40;10.10;;;11.60;90.00;;;;;;5155123;27;20059;-38
2021/09/02 01:24:34;;;;;;;16.40;9.82;;;11.60;90.10;;;;;;5155005;27;20374;-37
2021/09/02 01:26:59;;;;;;;15.23;10.05;;;11.60;90.10;;;;;;5154917;27;20106;-38
2021/09/02 01:29:25;;;;;;;18.42;10.60;;;11.60;90.00;;;;;;5154857;27;20523;-37
2021/09/02 01:31:53;;;;;;;15.65;9.02;;;11.50;90.00;;;;;;5154836;27;20037;-37
2021/09/02 01:34:18;;;;;;;14.55;8.48;;;11.50;90.10;;;;;;5136343;27;20030;-37
2021/09/02 01:36:46;;;;;;;22.85;9.68;;;11.50;90.20;;;;;;5154929;27;20022;-37
2021/09/02 01:39:18;;;;;;;13.60;8.93;;;11.40;90.20;;;;;;5155073;27;20152;-37
2021/09/02 01:41:43;;;;;;;13.60;8.77;;;11.40;90.30;;;;;;5136876;27;20030;-37
2021/09/02 01:44:09;;;;;;;15.77;8.85;;;11.40;90.40;;;;;;5154697;27;20019;-38
2021/09/02 01:46:35;;;;;;;18.10;9.10;;;11.40;90.40;;;;;;5154719;27;20031;-38
2021/09/02 01:49:00;;;;;;;14.63;8.38;;;11.40;90.20;;;;;;5154666;27;20029;-38
2021/09/02 01:51:26;;;;;;;15.52;9.75;;;11.40;90.30;;;;;;5154946;27;20026;-37
2021/09/02 01:53:52;;;;;;;16.25;8.55;;;11.40;90.30;;;;;;5154487;27;20050;-37
2021/09/02 01:56:17;;;;;;;15.85;9.68;;;11.40;90.30;;;;;;5155079;27;20030;-37
2021/09/02 01:58:43;;;;;;;15.27;10.20;;;11.40;90.40;;;;;;5154630;27;20029;-37
2021/09/02 02:01:08;;;;;;;14.80;9.00;;;11.40;90.30;;;;;;5135604;27;20031;-44
2021/09/02 02:03:34;;;;;;;17.00;9.20;;;11.40;90.30;;;;;;5154366;27;20019;-37
2021/09/02 02:06:00;;;;;;;15.68;9.48;;;11.40;90.30;;;;;;5154423;27;20030;-38
2021/09/02 02:08:25;;;;;;;17.50;10.00;;;11.40;90.20;;;;;;5135816;27;20023;-37
2021/09/02 02:10:51;;;;;;;17.73;10.25;;;11.40;90.30;;;;;;5154565;27;20018;-37
2021/09/02 02:13:17;;;;;;;15.93;9.55;;;11.40;90.30;;;;;;5154248;27;20090;-37
2021/09/02 02:15:42;;;;;;;12.13;9.45;;;11.40;90.20;;;;;;5135822;27;20394;-37
2021/09/02 02:18:08;;;;;;;17.30;9.90;;;11.40;90.20;;;;;;5154266;27;20118;-38
2021/09/02 02:20:33;;;;;;;22.85;9.00;;;11.40;90.10;;;;;;5154166;27;20030;-37
2021/09/02 02:22:59;;;;;;;19.13;9.35;;;11.40;90.20;;;;;;5154383;27;20019;-37
2021/09/02 02:25:25;;;;;;;19.42;10.40;;;11.30;90.20;;;;;;5154519;27;20022;-38
2021/09/02 02:27:51;;;;;;;17.88;10.43;;;11.40;90.20;;;;;;5154482;27;20094;-37
2021/09/02 02:30:18;;;;;;;18.40;9.35;;;11.30;90.20;;;;;;5154292;27;20091;-38
2021/09/02 02:32:44;;;;;;;23.70;10.27;;;11.40;89.90;;;;;;5154269;27;20026;-37
2021/09/02 02:35:10;;;;;;;14.73;9.82;;;11.30;89.90;;;;;;5154312;27;20050;-37
2021/09/02 02:37:36;;;;;;;23.75;9.98;;;11.30;89.80;;;;;;5154310;27;20031;-37
2021/09/02 02:40:08;;;;;;;21.58;9.13;;;11.30;89.80;;;;;;5154214;27;20381;-37
2021/09/02 02:42:33;;;;;;;24.45;10.07;;;11.30;89.90;;;;;;5154906;27;20023;-37
2021/09/02 02:44:59;;;;;;;21.40;10.13;;;11.30;90.00;;;;;;5154162;27;20517;-37
2021/09/02 02:47:25;;;;;;;18.27;9.90;;;11.30;89.80;;;;;;5154151;27;20362;-37
2021/09/02 02:49:50;;;;;;;16.58;9.80;;;11.30;89.70;;;;;;5154163;27;20064;-37
2021/09/02 02:52:16;;;;;;;15.80;9.07;;;11.30;89.80;;;;;;5154269;27;20054;-37
2021/09/02 02:54:42;;;;;;;13.57;8.45;;;11.20;89.90;;;;;;5153916;27;20558;-38
2021/09/02 02:57:07;;;;;;;14.20;9.70;;;11.20;89.90;;;;;;5153905;27;20049;-37
2021/09/02 02:59:33;;;;;;;12.70;8.30;;;11.20;89.90;;;;;;5135222;27;20474;-37
2021/09/02 03:01:59;;;;;;;15.40;9.00;;;11.20;89.80;;;;;;5154557;27;20034;-37
2021/09/02 03:04:24;;;;;;;20.38;9.95;;;11.10;89.90;;;;;;5154150;27;20105;-37
2021/09/02 03:06:50;;;;;;;16.13;7.93;;;11.10;90.00;;;;;;5153714;27;20015;-37
2021/09/02 03:09:16;;;;;;;16.88;9.60;;;11.10;90.00;;;;;;5153852;27;20079;-37
2021/09/02 03:11:41;;;;;;;14.82;9.02;;;11.10;90.00;;;;;;5154130;27;20027;-37
2021/09/02 03:14:07;;;;;;;15.55;8.13;;;11.10;89.80;;;;;;5153713;27;20037;-37
2021/09/02 03:16:33;;;;;;;16.55;8.80;;;11.00;90.00;;;;;;5153778;27;20027;-37
2021/09/02 03:18:58;;;;;;;17.13;8.50;;;11.00;89.90;;;;;;5153548;27;20070;-37
2021/09/02 03:21:24;;;;;;;14.35;8.45;;;11.00;90.00;;;;;;5153963;27;20018;-37
2021/09/02 03:23:50;;;;;;;14.15;8.10;;;11.00;90.00;;;;;;5154712;27;20015;-37
2021/09/02 03:26:15;;;;;;;12.93;9.10;;;11.00;89.90;;;;;;5157377;27;20114;-42
2021/09/02 03:28:41;;;;;;;13.82;8.73;;;10.90;89.80;;;;;;5157373;27;20019;-37
2021/09/02 03:31:07;;;;;;;12.50;7.55;;;10.80;89.70;;;;;;5157188;27;20019;-37
2021/09/02 03:33:33;;;;;;;14.07;8.50;;;10.90;89.70;;;;;;5156892;27;20197;-37
2021/09/02 03:35:58;;;;;;;14.90;8.75;;;10.80;89.70;;;;;;5156920;27;20030;-37
2021/09/02 03:38:24;;;;;;;14.13;8.30;;;10.80;89.80;;;;;;5156733;27;20534;-37
2021/09/02 03:40:50;;;;;;;15.43;8.07;;;10.80;89.80;;;;;;5156760;27;20027;-37
2021/09/02 03:43:20;;;;;;;15.70;9.23;;;10.80;89.90;;;;;;5138523;27;20029;-37
2021/09/02 03:45:46;;;;;;;19.58;10.27;;;10.80;90.00;;;;;;5156801;27;20358;-37
2021/09/02 03:48:11;;;;;;;15.82;9.65;;;10.80;90.10;;;;;;5156503;27;20026;-37
2021/09/02 03:50:37;;;;;;;19.63;9.70;;;10.80;90.20;;;;;;5156497;27;20019;-37
2021/09/02 03:53:02;;;;;;;17.75;9.77;;;10.80;90.10;;;;;;5156325;27;20114;-37
2021/09/02 03:55:28;;;;;;;15.52;8.73;;;10.80;90.10;;;;;;5156311;27;20027;-37
2021/09/02 03:57:54;;;;;;;12.55;8.52;;;10.80;90.00;;;;;;5156532;27;20378;-36
2021/09/02 04:00:19;;;;;;;14.00;9.70;;;10.80;89.70;;;;;;5156476;27;20544;-36
2021/09/02 04:02:45;;;;;;;16.85;8.73;;;10.80;89.80;;;;;;5156188;27;20015;-37
2021/09/02 04:05:11;;;;;;;12.40;7.95;;;10.80;89.80;;;;;;5156466;27;20447;-36
2021/09/02 04:07:37;;;;;;;14.13;8.35;;;10.80;90.00;;;;;;5156414;27;20038;-36
2021/09/02 04:10:04;;;;;;;14.65;8.80;;;10.80;89.90;;;;;;5156099;27;20019;-36
2021/09/02 04:12:30;;;;;;;16.13;8.88;;;10.80;90.00;;;;;;5156441;27;20018;-36
2021/09/02 04:14:56;;;;;;;13.48;9.13;;;10.80;90.00;;;;;;5156691;27;20029;-36
2021/09/02 04:17:23;;;;;;;16.88;9.50;;;10.70;90.10;;;;;;5156267;27;20093;-36
2021/09/02 04:19:48;;;;;;;14.88;8.38;;;10.80;90.20;;;;;;5155846;27;20031;-36
2021/09/02 04:22:14;;;;;;;13.55;8.48;;;10.80;90.00;;;;;;5156139;27;20462;-36
2021/09/02 04:24:40;;;;;;;15.00;8.30;;;10.80;89.90;;;;;;5156599;27;20429;-36
2021/09/02 04:27:06;;;;;;;15.52;9.93;;;10.80;89.90;;;;;;5155992;27;20363;-36
2021/09/02 04:29:31;;;;;;;19.88;9.90;;;10.80;90.10;;;;;;5156198;27;20029;-36
2021/09/02 04:31:57;;;;;;;15.40;9.27;;;10.80;90.20;;;;;;5155944;27;20489;-37
2021/09/02 04:34:23;;;;;;;15.38;8.38;;;10.80;89.90;;;;;;5155991;27;20451;-36
2021/09/02 04:36:48;;;;;;;17.90;9.05;;;10.70;89.90;;;;;;5156260;27;20481;-37
2021/09/02 04:39:14;;;;;;;17.17;9.85;;;10.80;90.10;;;;;;5155961;27;20058;-37
2021/09/02 04:41:40;;;;;;;18.92;10.20;;;10.70;90.10;;;;;;5155838;27;20078;-36
2021/09/02 04:44:05;;;;;;;15.07;9.82;;;10.80;90.10;;;;;;5155900;27;20026;-36
2021/09/02 04:46:31;;;;;;;15.93;9.43;;;10.80;89.90;;;;;;5155911;27;20040;-36
2021/09/02 04:48:56;;;;;;;17.95;12.00;;;10.70;89.90;;;;;;5155788;27;20027;-36
2021/09/02 04:51:22;;;;;;;14.60;9.18;;;10.80;90.00;;;;;;5155985;27;20018;-37
2021/09/02 04:53:47;;;;;;;19.42;9.52;;;10.80;89.80;;;;;;5155727;27;20137;-36
2021/09/02 04:56:13;;;;;;;15.93;9.25;;;10.80;89.70;;;;;;5155581;27;20102;-36
2021/09/02 04:58:39;;;;;;;15.85;9.93;;;10.80;89.70;;;;;;5155848;27;20450;-38
2021/09/02 05:01:05;;;;;;;13.00;9.35;;;10.80;89.60;;;;;;5155665;27;20355;-38
2021/09/02 05:03:31;;;;;;;16.05;10.70;;;10.80;89.60;;;;;;5136850;27;20065;-37
2021/09/02 05:05:57;;;;;;;22.02;9.95;;;10.80;89.80;;;;;;5155734;27;20082;-37
2021/09/02 05:08:23;;;;;;;15.32;9.18;;;10.80;89.90;;;;;;5136989;27;20023;-36
2021/09/02 05:10:49;;;;;;;14.88;9.68;;;10.80;89.90;;;;;;5155053;27;20082;-37
2021/09/02 05:13:16;;;;;;;19.73;10.63;;;10.80;89.90;;;;;;5155456;27;20026;-37
2021/09/02 05:15:41;;;;;;;17.52;9.90;;;10.80;89.90;;;;;;5155918;27;20098;-38
2021/09/02 05:18:07;;;;;;;18.58;12.02;;;10.80;89.90;;;;;;5155484;27;20155;-37
2021/09/02 05:20:33;;;;;;;23.73;11.05;;;10.90;90.00;;;;;;5136599;27;20431;-38
2021/09/02 05:22:59;;;;;;;18.17;10.43;;;11.00;90.00;;;;;;5136350;27;20026;-37
2021/09/02 05:25:25;;;;;;;21.02;12.13;;;11.00;89.90;;;;;;5154898;27;20106;-37
2021/09/02 05:27:51;;;;;;;21.27;12.32;;;11.10;89.80;;;;;;5155021;27;20027;-37
2021/09/02 05:30:17;;;;;;;23.70;12.68;;;11.10;89.60;;;;;;5154941;27;20030;-37
2021/09/02 05:32:43;;;;;;;27.15;15.55;;;11.10;89.70;;;;;;5154685;27;20029;-37
2021/09/02 05:35:10;;;;;;;22.73;14.57;;;11.10;89.50;;;;;;5154869;27;20470;-38
2021/09/02 05:37:36;;;;;;;22.80;14.70;;;11.10;89.70;;;;;;5154835;27;20050;-36
2021/09/02 05:40:03;;;;;;;29.15;13.60;;;11.10;89.80;;;;;;5154643;27;20051;-37
2021/09/02 05:42:28;;;;;;;26.02;14.32;;;11.20;89.90;;;;;;5154533;27;20049;-37
2021/09/02 05:44:54;;;;;;;25.58;15.15;;;11.10;89.80;;;;;;5155095;27;20090;-38
2021/09/02 05:47:20;;;;;;;20.38;11.77;;;11.20;89.80;;;;;;5154181;27;20426;-37
2021/09/02 05:49:45;;;;;;;18.73;11.23;;;11.20;89.70;;;;;;5154879;27;20027;-37
2021/09/02 05:52:11;;;;;;;26.55;13.38;;;11.40;89.10;;;;;;5154708;27;20051;-37
2021/09/02 05:54:37;;;;;;;24.30;13.82;;;11.50;88.80;;;;;;5135290;27;20061;-41
2021/09/02 05:57:03;;;;;;;28.77;14.50;;;11.60;88.90;;;;;;5136348;27;20037;-37
2021/09/02 05:59:28;;;;;;;29.25;16.33;;;11.70;88.90;;;;;;5154587;27;20031;-37
2021/09/02 06:01:54;;;;;;;26.92;14.57;;;11.80;88.80;;;;;;5154337;27;20014;-37
2021/09/02 06:04:20;;;;;;;23.50;13.20;;;11.80;88.50;;;;;;5154445;27;20030;-37
2021/09/02 06:06:45;;;;;;;26.83;14.00;;;11.90;88.50;;;;;;5154168;27;20038;-38
2021/09/02 06:09:11;;;;;;;31.27;15.13;;;12.00;88.30;;;;;;5154252;27;20097;-37
2021/09/02 06:11:36;;;;;;;34.50;16.38;;;12.20;88.50;;;;;;5154428;27;20026;-37
2021/09/02 06:14:11;;;;;;;27.40;15.98;;;12.30;88.40;;;;;;5153996;27;20086;-37
2021/09/02 06:16:37;;;;;;;31.90;18.23;;;12.40;88.40;;;;;;5135483;27;20069;-37
2021/09/02 06:19:02;;;;;;;36.75;17.98;;;12.50;88.50;;;;;;5153551;27;20066;-38
2021/09/02 06:21:28;;;;;;;34.55;19.25;;;12.50;88.30;;;;;;5154216;27;20444;-38
2021/09/02 06:23:54;;;;;;;36.60;17.70;;;12.70;88.30;;;;;;5154088;27;20049;-38
2021/09/02 06:26:19;;;;;;;35.83;19.02;;;12.80;88.20;;;;;;5153884;27;20058;-35
2021/09/02 06:28:45;;;;;;;36.67;17.98;;;12.90;88.00;;;;;;5153772;27;20038;-37
2021/09/02 06:31:10;;;;;;;30.50;18.58;;;13.00;87.80;;;;;;5154076;27;20038;-36
2021/09/02 06:33:38;;;;;;;35.88;19.40;;;13.20;87.40;;;;;;5135356;27;20117;-37
2021/09/02 06:36:04;;;;;;;32.13;18.02;;;13.40;86.90;;;;;;5154142;27;20533;-37
2021/09/02 06:38:30;;;;;;;30.50;16.40;;;13.50;86.40;;;;;;5154303;27;20026;-37
2021/09/02 06:40:55;;;;;;;31.90;17.27;;;13.60;86.00;;;;;;5154535;27;20019;-37
2021/09/02 06:43:21;;;;;;;30.33;17.30;;;13.90;85.10;;;;;;5135497;27;20022;-37
2021/09/02 06:45:47;;;;;;;30.23;17.27;;;14.00;84.80;;;;;;5118585;27;20019;-37
2021/09/02 06:48:12;;;;;;;25.77;16.70;;;14.00;84.60;;;;;;5154144;27;20031;-38
2021/09/02 06:50:38;;;;;;;31.15;17.73;;;14.20;84.70;;;;;;5153758;27;20071;-37
2021/09/02 06:53:03;;;;;;;32.88;19.45;;;14.20;84.40;;;;;;5153613;27;20073;-38
2021/09/02 06:55:29;;;;;;;29.40;16.67;;;14.30;85.20;;;;;;5153925;27;20034;-37
2021/09/02 06:57:55;;;;;;;33.05;19.95;;;14.50;84.80;;;;;;5154787;27;20066;-36
2021/09/02 07:00:20;;;;;;;31.85;18.60;;;14.70;84.20;;;;;;5157320;27;20073;-37
2021/09/02 07:02:46;;;;;;;34.28;20.15;;;14.80;84.40;;;;;;5157746;27;20094;-40
2021/09/02 07:05:12;;;;;;;32.90;18.90;;;14.80;84.40;;;;;;5138874;27;20086;-37
2021/09/02 07:07:38;;;;;;;37.47;19.70;;;14.80;85.10;;;;;;5157170;27;20470;-37
2021/09/02 07:10:05;;;;;;;39.97;20.98;;;14.80;85.60;;;;;;5157213;27;20030;-37
2021/09/02 07:12:31;;;;;;;40.35;20.70;;;14.90;85.60;;;;;;5157630;27;20108;-37
2021/09/02 07:14:56;;;;;;;35.28;21.10;;;14.90;85.60;;;;;;5138841;27;20019;-38
2021/09/02 07:17:22;;;;;;;39.20;20.92;;;15.20;85.50;;;;;;5157704;27;20015;-37
2021/09/02 07:19:48;;;;;;;42.28;21.42;;;15.40;84.50;;;;;;5157176;27;20173;-37
2021/09/02 07:22:13;;;;;;;41.22;19.15;;;15.70;83.80;;;;;;5157431;27;20485;-37
2021/09/02 07:24:39;;;;;;;40.45;21.52;;;15.80;83.80;;;;;;5157928;27;20053;-36
2021/09/02 07:27:05;;;;;;;31.15;20.35;;;15.80;83.50;;;;;;5157424;27;20455;-37
2021/09/02 07:29:31;;;;;;;38.22;20.75;;;15.90;82.50;;;;;;5156996;27;20063;-36
2021/09/02 07:31:57;;;;;;;39.42;19.92;;;16.10;82.00;;;;;;5157144;27;20496;-36
2021/09/02 07:34:23;;;;;;;38.00;21.65;;;16.00;83.10;;;;;;5156737;27;20050;-37
2021/09/02 07:36:49;;;;;;;33.30;18.10;;;16.00;82.70;;;;;;5157130;27;20083;-38
2021/09/02 07:39:15;;;;;;;37.22;19.83;;;16.20;82.60;;;;;;5157317;27;20052;-38
2021/09/02 07:41:41;;;;;;;32.42;18.15;;;16.30;82.10;;;;;;5138772;27;20019;-37
2021/09/02 07:44:07;;;;;;;33.08;17.73;;;16.30;81.90;;;;;;5157323;27;20023;-37
2021/09/02 07:46:33;;;;;;;35.92;18.48;;;16.60;80.60;;;;;;5156539;27;20106;-37
2021/09/02 07:48:58;;;;;;;35.05;20.67;;;16.60;80.10;;;;;;5156935;27;20350;-39
2021/09/02 07:51:24;;;;;;;37.72;20.40;;;16.80;79.90;;;;;;5156898;27;20031;-37
2021/09/02 07:53:49;;;;;;;28.63;17.40;;;16.60;80.10;;;;;;5156328;27;20102;-37
2021/09/02 07:56:15;;;;;;;24.83;17.70;;;16.80;79.40;;;;;;5157054;27;20023;-37
2021/09/02 07:58:42;;;;;;;34.65;17.27;;;16.80;78.70;;;;;;5156709;27;20023;-37
2021/09/02 08:01:12;;;;;;;34.38;19.17;;;16.80;79.50;;;;;;5157085;27;20033;-37
2021/09/02 08:03:38;;;;;;;28.15;17.63;;;17.10;78.50;;;;;;5156705;27;20031;-37
2021/09/02 08:06:04;;;;;;;28.02;16.23;;;17.20;78.60;;;;;;5156781;27;20022;-38
2021/09/02 08:08:31;;;;;;;30.15;19.17;;;17.30;77.50;;;;;;5139018;27;20533;-39
2021/09/02 08:10:56;;;;;;;37.38;17.52;;;16.90;78.60;;;;;;5156098;27;20408;-38
2021/09/02 08:13:22;;;;;;;29.63;16.83;;;17.00;78.20;;;;;;5157193;27;20034;-37
2021/09/02 08:15:47;;;;;;;26.00;15.40;;;16.90;78.40;;;;;;5156976;27;20534;-36
2021/09/02 08:18:13;;;;;;;31.63;17.48;;;17.00;78.40;;;;;;5156294;27;20423;-37
2021/09/02 08:20:39;;;;;;;32.38;16.88;;;17.00;78.40;;;;;;5138204;27;20466;-39
2021/09/02 08:23:05;;;;;;;25.33;15.23;;;17.50;77.50;;;;;;5137954;27;20034;-37
2021/09/02 08:25:31;;;;;;;26.10;15.50;;;18.10;74.90;;;;;;5138232;27;20048;-37
2021/09/02 08:27:57;;;;;;;22.77;13.75;;;18.70;73.10;;;;;;5156898;27;20027;-38
2021/09/02 08:30:25;;;;;;;26.15;14.95;;;18.90;72.50;;;;;;5141082;27;20037;-40
2021/09/02 08:32:52;;;;;;;26.42;15.85;;;19.10;70.80;;;;;;5138052;27;20022;-37
2021/09/02 08:35:27;;;;;;;27.35;15.10;;;19.10;71.10;;;;;;5137291;27;20366;-37
2021/09/02 08:37:55;;;;;;;25.02;13.82;;;19.30;70.60;;;;;;5136941;27;20026;-37
2021/09/02 08:40:24;;;;;;;28.20;16.05;;;19.30;70.10;;;;;;5155511;27;20038;-47
2021/09/02 08:42:51;;;;;;;26.80;16.70;;;19.10;70.50;;;;;;5155828;27;20101;-38
2021/09/02 08:45:17;;;;;;;33.55;14.82;;;19.10;70.60;;;;;;5136725;27;20038;-37
2021/09/02 08:47:45;;;;;;;23.60;15.52;;;19.40;69.40;;;;;;5137051;27;20086;-38
2021/09/02 08:50:12;;;;;;;28.92;16.65;;;19.60;69.70;;;;;;5155481;27;20030;-38
2021/09/02 08:52:37;;;;;;;22.45;15.25;;;20.30;67.00;;;;;;5155483;27;20478;-36
2021/09/02 08:55:04;;;;;;;27.50;15.55;;;20.00;67.80;;;;;;5136894;27;20025;-38
2021/09/02 08:57:30;;;;;;;21.27;15.65;;;20.30;66.50;;;;;;5155117;27;20015;-38
2021/09/02 08:59:57;;;;;;;24.05;16.65;;;20.00;67.10;;;;;;5154656;27;20517;-37
2021/09/02 09:02:27;;;;;;;27.63;15.85;;;19.70;68.80;;;;;;5154706;27;20014;-37
2021/09/02 09:05:10;;;;;;;31.48;15.60;;;19.70;68.70;;;;;;5155356;27;20067;-37
2021/09/02 09:07:39;;;;;;;21.67;13.88;;;19.70;68.40;;;;;;5156326;27;20478;-37
2021/09/02 09:10:23;;;;;;;27.08;15.82;;;19.30;69.10;;;;;;5155304;27;20408;-37
2021/09/02 09:12:51;;;;;;;26.45;14.05;;;19.00;69.80;;;;;;5155378;27;20134;-38
2021/09/02 09:15:31;;;;;;;32.92;15.20;;;19.10;69.80;;;;;;5155100;27;20504;-37
2021/09/02 09:18:22;;;;;;;25.55;16.55;;;19.80;68.10;;;;;;5136209;27;20031;-37
2021/09/02 09:21:14;;;;;;;25.15;15.75;;;20.20;66.70;;;;;;5154526;27;20119;-38
2021/09/02 09:24:05;;;;;;;26.88;14.98;;;20.80;65.00;;;;;;5154623;27;20374;-38
2021/09/02 09:26:33;;;;;;;23.73;15.25;;;21.70;61.50;;;;;;5154499;27;20385;-37
2021/09/02 09:29:01;;;;;;;25.88;16.55;;;20.60;64.90;;;;;;5118745;27;20026;-37
2021/09/02 09:31:33;;;;;;;27.95;17.13;;;20.30;67.10;;;;;;5135668;27;20106;-39
2021/09/02 09:34:08;;;;;;;38.90;16.17;;;21.40;63.40;;;;;;5118745;27;20029;-37
2021/09/02 09:36:36;;;;;;;24.25;17.83;;;19.90;67.60;;;;;;5154473;27;20019;-37
2021/09/02 09:39:04;;;;;;;26.98;17.35;;;19.70;68.60;;;;;;5118176;27;20090;-38
2021/09/02 09:41:40;;;;;;;28.02;17.77;;;20.50;67.00;;;;;;5154607;27;20023;-38
2021/09/02 09:44:24;;;;;;;27.13;15.48;;;21.80;62.50;;;;;;5135813;27;20030;-38
2021/09/02 09:47:05;;;;;;;24.92;16.80;;;22.30;60.20;;;;;;5153823;27;20015;-37
2021/09/02 09:49:56;;;;;;;24.73;16.42;;;22.40;59.80;;;;;;5134838;27;20462;-39
2021/09/02 09:52:41;;;;;;;26.73;16.65;;;21.70;61.80;;;;;;5154205;27;20019;-38
2021/09/02 09:55:17;;;;;;;26.52;18.67;;;21.80;61.60;;;;;;5153879;27;20034;-37
2021/09/02 09:57:46;;;;;;;34.28;19.88;;;22.00;61.00;;;;;;5154087;27;20406;-37
2021/09/02 10:00:18;;;;;;;30.92;19.63;;;21.60;62.40;;;;;;5153848;27;20023;-37
2021/09/02 10:02:49;;;;;;;34.28;20.73;;;22.00;61.10;;;;;;5135202;27;20023;-37
2021/09/02 10:05:17;;;;;;;29.20;19.38;;;22.40;59.90;;;;;;5154385;27;20038;-37
2021/09/02 10:07:47;;;;;;;34.22;20.95;;;22.20;59.80;;;;;;5153722;27;20019;-37
2021/09/02 10:10:15;;;;;;;27.42;20.63;;;21.70;61.60;;;;;;5153578;27;20015;-37
2021/09/02 10:12:47;;;;;;;36.60;21.40;;;22.40;60.70;;;;;;5154070;27;20019;-38
2021/09/02 10:15:15;;;;;;;27.85;19.70;;;22.30;60.40;;;;;;5154367;27;20130;-38
2021/09/02 10:17:42;;;;;;;31.98;21.08;;;21.90;61.60;;;;;;5136225;27;20014;-38
2021/09/02 10:20:15;;;;;;;26.80;19.60;;;22.50;60.00;;;;;;5156007;27;20067;-38
2021/09/02 10:22:42;;;;;;;30.65;19.90;;;23.00;58.00;;;;;;5136543;27;20015;-38
2021/09/02 10:25:32;;;;;;;30.17;19.58;;;22.80;59.10;;;;;;5136422;27;20331;-38
2021/09/02 10:28:05;;;;;;;27.15;19.42;;;22.40;60.20;;;;;;5136049;27;20030;-39
2021/09/02 10:30:32;;;;;;;27.52;21.08;;;22.40;60.00;;;;;;5155759;27;20014;-38
2021/09/02 10:32:59;;;;;;;32.72;20.77;;;22.70;60.00;;;;;;5138054;27;20079;-38
2021/09/02 10:35:25;;;;;;;37.28;22.27;;;23.60;57.00;;;;;;5141128;27;20121;-37
2021/09/02 10:37:54;;;;;;;31.15;20.88;;;23.80;56.10;;;;;;5159042;27;20034;-38
2021/09/02 10:40:23;;;;;;;33.63;22.83;;;23.30;58.30;;;;;;5159666;27;20105;-39
2021/09/02 10:42:57;;;;;;;38.75;23.92;;;24.00;55.20;;;;;;5158767;27;20030;-40
2021/09/02 10:45:28;;;;;;;31.52;23.42;;;22.80;58.80;;;;;;5158831;27;20026;-39
2021/09/02 10:48:06;;;;;;;35.60;24.42;;;21.90;61.60;;;;;;5159243;27;20023;-40
2021/09/02 10:50:40;;;;;;;42.17;26.05;;;21.80;62.40;;;;;;5160217;27;20023;-40
2021/09/02 10:53:15;;;;;;;41.90;26.05;;;22.30;61.40;;;;;;5159246;27;20139;-41
2021/09/02 10:55:47;;;;;;;39.65;27.95;;;22.80;59.70;;;;;;5157850;27;20482;-37
2021/09/02 10:58:44;;;;;;;36.00;25.52;;;23.60;58.00;;;;;;5157760;27;20029;-37
2021/09/02 11:01:22;;;;;;;39.00;25.67;;;24.10;56.60;;;;;;5139094;27;20474;-37
2021/09/02 11:03:49;;;;;;;42.15;27.73;;;24.70;54.70;;;;;;5138438;27;20022;-37
2021/09/02 11:06:17;;;;;;;36.05;25.60;;;24.30;54.50;;;;;;5156800;27;20157;-38
2021/09/02 11:08:43;;;;;;;42.70;29.77;;;24.30;55.70;;;;;;5157228;27;20025;-38
2021/09/02 11:11:13;;;;;;;41.10;26.25;;;24.20;55.60;;;;;;5138835;27;20034;-38
2021/09/02 11:13:43;;;;;;;41.03;25.42;;;22.30;60.70;;;;;;5138725;27;20505;-37
2021/09/02 11:16:10;;;;;;;39.03;25.70;;;21.40;64.60;;;;;;5157206;27;20335;-38
2021/09/02 11:18:44;;;;;;;38.58;25.35;;;21.60;63.90;;;;;;5157276;27;20019;-38
2021/09/02 11:21:16;;;;;;;38.55;25.17;;;22.30;62.30;;;;;;5157457;27;20022;-37
2021/09/02 11:23:46;;;;;;;35.60;22.98;;;22.80;60.20;;;;;;5157480;27;20026;-37
2021/09/02 11:26:43;;;;;;;35.35;23.98;;;22.90;60.50;;;;;;5157592;27;20514;-37
2021/09/02 11:29:21;;;;;;;33.08;22.58;;;24.40;55.90;;;;;;5157160;27;20027;-38
2021/09/02 11:32:10;;;;;;;41.00;24.92;;;25.00;53.50;;;;;;5156878;27;20117;-40
2021/09/02 11:34:35;;;;;;;34.05;21.83;;;25.00;53.40;;;;;;5156370;27;20106;-37
2021/09/02 11:37:02;;;;;;;33.75;22.80;;;24.20;55.10;;;;;;5156386;27;20050;-37
2021/09/02 11:39:36;;;;;;;30.70;21.17;;;23.30;58.20;;;;;;5156116;27;20093;-37
2021/09/02 11:42:12;;;;;;;32.72;23.00;;;23.40;58.60;;;;;;5156624;27;20027;-37
2021/09/02 11:44:39;;;;;;;40.97;25.23;;;23.70;57.40;;;;;;5155746;27;20050;-38
2021/09/02 11:47:08;;;;;;;34.20;22.52;;;23.20;58.10;;;;;;5156781;27;20143;-38
2021/09/02 11:49:34;;;;;;;31.88;21.15;;;23.10;58.40;;;;;;5156206;27;20034;-38
2021/09/02 11:52:00;;;;;;;31.40;20.08;;;23.40;58.00;;;;;;5156275;27;20047;-38
2021/09/02 11:54:27;;;;;;;32.45;19.90;;;23.20;57.80;;;;;;5155683;27;20497;-37
2021/09/02 11:56:54;;;;;;;30.30;20.00;;;22.60;60.40;;;;;;5137618;27;20026;-37
2021/09/02 11:59:20;;;;;;;33.42;20.63;;;23.00;57.80;;;;;;5156158;27;20159;-38
2021/09/02 12:01:48;;;;;;;33.60;21.42;;;23.20;58.40;;;;;;5155966;27;20026;-38
2021/09/02 12:04:18;;;;;;;33.58;20.15;;;23.80;56.80;;;;;;5157054;27;20353;-37
2021/09/02 12:06:46;;;;;;;28.13;18.98;;;24.50;54.50;;;;;;5137380;27;20018;-37
2021/09/02 12:09:13;;;;;;;26.17;19.17;;;25.00;53.70;;;;;;5137853;27;20114;-37
2021/09/02 12:11:39;;;;;;;30.83;21.45;;;25.20;52.20;;;;;;5155996;27;20092;-37
2021/09/02 12:14:29;;;;;;;30.27;20.42;;;25.30;51.00;;;;;;5137512;27;20019;-38
2021/09/02 12:17:06;;;;;;;28.25;19.63;;;24.50;53.80;;;;;;5155797;27;20100;-38
2021/09/02 12:19:58;;;;;;;25.50;16.67;;;24.70;53.60;;;;;;5155588;27;20057;-38
2021/09/02 12:22:32;;;;;;;24.75;18.45;;;24.00;54.90;;;;;;5156548;27;20022;-38
2021/09/02 12:25:10;;;;;;;28.25;19.50;;;23.90;54.40;;;;;;5156084;27;20034;-38
2021/09/02 12:27:50;;;;;;;28.33;18.85;;;23.80;55.20;;;;;;5155431;27;20022;-38
2021/09/02 12:30:37;;;;;;;25.33;17.27;;;24.30;54.40;;;;;;5155938;27;20023;-37
2021/09/02 12:33:09;;;;;;;26.27;17.55;;;24.60;53.50;;;;;;5122745;27;20091;-36
2021/09/02 12:35:43;;;;;;;26.55;17.20;;;24.50;52.80;;;;;;5136918;27;20448;-38